Time;durP1;ratioP1;P1;durP2;ratioP2;P2;SDS_P1;SDS_P2;PMS_P1;PMS_P2;Temp;Humidity;BMP_temperature;BMP_pressure;BME280_temperature;BME280_humidity;BME280_pressure;Samples;Min_cycle;Max_cycle;Signal;HPM_P1;HPM_P2
2022/11/04 00:01:55;;;;;;;7.55;3.35;;;;;;;9.44;100.00;99967.84;5041401;28;20175;-47
2022/11/04 00:04:22;;;;;;;9.85;3.85;;;;;;;9.47;100.00;99951.69;5031787;28;20199;-45
2022/11/04 00:06:48;;;;;;;9.90;3.50;;;;;;;9.44;100.00;99951.81;5033230;28;20203;-49
2022/11/04 00:09:20;;;;;;;6.53;2.75;;;;;;;9.45;100.00;99948.22;5028537;28;20604;-50
2022/11/04 00:14:31;;;;;;;10.82;3.58;;;;;;;9.37;100.00;99939.69;5026854;28;20321;-52
2022/11/04 00:30:54;;;;;;;7.25;3.10;;;;;;;9.47;100.00;99912.44;5034230;28;20548;-47
2022/11/04 00:33:25;;;;;;;4.68;3.00;;;;;;;9.49;100.00;99905.22;5033750;28;20187;-45
2022/11/04 00:35:55;;;;;;;8.65;3.30;;;;;;;9.50;100.00;99908.75;5036861;28;20247;-47
2022/11/04 00:38:22;;;;;;;5.78;3.60;;;;;;;9.52;100.00;99906.84;5031820;28;20688;-53
2022/11/04 00:40:48;;;;;;;6.70;3.58;;;;;;;9.53;100.00;99915.75;5034157;28;20195;-48
2022/11/04 00:43:13;;;;;;;9.52;3.40;;;;;;;9.54;100.00;99913.00;5042141;28;20581;-50
2022/11/04 00:45:40;;;;;;;7.65;3.55;;;;;;;9.55;100.00;99895.16;5040278;28;20571;-46
2022/11/04 00:48:06;;;;;;;7.22;3.47;;;;;;;9.53;100.00;99897.03;5038374;28;20279;-46
2022/11/04 00:50:32;;;;;;;6.90;3.65;;;;;;;9.53;100.00;99902.38;5030847;28;20188;-46
2022/11/04 00:53:01;;;;;;;5.93;3.65;;;;;;;9.53;100.00;99908.56;5035184;28;20492;-51
2022/11/04 00:55:27;;;;;;;9.05;3.88;;;;;;;9.53;100.00;99900.56;5038533;28;20206;-49
2022/11/04 00:57:53;;;;;;;6.10;2.85;;;;;;;9.55;100.00;99903.16;5035560;28;20172;-47
2022/11/04 01:00:19;;;;;;;5.32;3.05;;;;;;;9.54;100.00;99915.69;5043110;28;20266;-47
2022/11/04 01:02:45;;;;;;;10.20;3.80;;;;;;;9.55;100.00;99905.84;5033188;28;20270;-48
2022/11/04 01:05:10;;;;;;;6.63;3.70;;;;;;;9.56;100.00;99905.78;5030835;28;20226;-49
2022/11/04 01:07:36;;;;;;;10.27;3.65;;;;;;;9.62;100.00;99905.47;5036582;28;20692;-46
2022/11/04 01:10:01;;;;;;;6.45;2.97;;;;;;;9.62;100.00;99893.88;5036126;28;20711;-47
2022/11/04 01:12:27;;;;;;;5.82;3.33;;;;;;;9.60;100.00;99899.34;5036527;28;20290;-47
2022/11/04 01:14:52;;;;;;;7.10;3.45;;;;;;;9.60;100.00;99890.41;5037242;28;20566;-51
2022/11/04 01:17:18;;;;;;;5.40;3.20;;;;;;;9.55;100.00;99889.78;5038128;28;20245;-47
2022/11/04 01:19:43;;;;;;;8.18;3.75;;;;;;;9.49;100.00;99883.81;5037517;28;20672;-47
2022/11/04 01:22:09;;;;;;;7.90;3.90;;;;;;;9.44;100.00;99883.16;5033570;28;20604;-49
2022/11/04 01:24:34;;;;;;;7.40;3.63;;;;;;;9.37;100.00;99870.19;5034480;28;20730;-44
2022/11/04 01:26:59;;;;;;;10.38;4.28;;;;;;;9.36;100.00;99879.13;5035995;28;20215;-47
2022/11/04 01:29:25;;;;;;;7.40;4.28;;;;;;;9.33;100.00;99861.44;5042876;28;20310;-50
2022/11/04 01:31:50;;;;;;;11.70;4.18;;;;;;;9.29;100.00;99867.84;5038653;28;20723;-47
2022/11/04 01:34:16;;;;;;;11.48;4.22;;;;;;;9.27;100.00;99865.28;5040060;28;20219;-45
2022/11/04 01:36:41;;;;;;;6.45;3.80;;;;;;;9.23;100.00;99876.19;5032455;28;20272;-50
2022/11/04 01:39:07;;;;;;;8.90;4.15;;;;;;;9.20;100.00;99870.97;5032655;28;20190;-48
2022/11/04 01:41:33;;;;;;;6.20;4.22;;;;;;;9.20;100.00;99857.63;5036589;28;20639;-45
2022/11/04 01:44:03;;;;;;;5.60;3.65;;;;;;;9.19;100.00;99847.88;5032573;28;20204;-46
2022/11/04 01:46:47;;;;;;;7.88;3.65;;;;;;;9.21;100.00;99854.88;5034896;28;20180;-49
2022/11/04 01:49:15;;;;;;;11.13;3.88;;;;;;;9.22;100.00;99845.06;5033661;28;20617;-48
2022/11/04 01:51:43;;;;;;;6.68;3.80;;;;;;;9.23;100.00;99830.75;5037512;28;20210;-50
2022/11/04 01:54:10;;;;;;;5.97;4.20;;;;;;;9.26;100.00;99828.78;5035863;28;20203;-49
2022/11/04 01:56:37;;;;;;;8.02;3.92;;;;;;;9.33;100.00;99837.38;5032688;28;20661;-50
2022/11/04 01:59:10;;;;;;;7.70;4.18;;;;;;;9.31;100.00;99851.75;5030396;28;20187;-50
2022/11/04 02:01:35;;;;;;;6.88;4.15;;;;;;;9.31;100.00;99830.38;5036284;28;20191;-49
2022/11/04 02:06:47;;;;;;;10.57;4.18;;;;;;;9.30;100.00;99832.19;5039446;28;20176;-49
2022/11/04 02:09:13;;;;;;;7.05;3.90;;;;;;;9.27;100.00;99827.88;5036147;28;20259;-49
2022/11/04 02:14:25;;;;;;;7.30;4.00;;;;;;;9.30;100.00;99816.16;5032533;28;20203;-49
2022/11/04 02:16:55;;;;;;;7.47;3.72;;;;;;;9.27;100.00;99825.19;5034989;28;20250;-49
2022/11/04 02:19:29;;;;;;;10.77;4.25;;;;;;;9.28;100.00;99826.91;5030291;28;20183;-49
2022/11/04 02:22:28;;;;;;;9.20;4.28;;;;;;;9.28;100.00;99818.03;5042760;28;20278;-49
2022/11/04 02:25:11;;;;;;;10.23;4.25;;;;;;;9.34;100.00;99822.22;5032768;28;20273;-49
2022/11/04 02:27:59;;;;;;;6.60;3.92;;;;;;;9.35;100.00;99823.94;5032340;28;20195;-48
2022/11/04 02:30:31;;;;;;;8.07;4.25;;;;;;;9.35;100.00;99819.44;5031584;28;20644;-49
2022/11/04 02:33:08;;;;;;;6.72;3.85;;;;;;;9.37;100.00;99816.72;5026360;28;20186;-49
2022/11/04 02:35:43;;;;;;;7.82;3.63;;;;;;;9.36;100.00;99831.88;5033373;28;20704;-50
2022/11/04 02:38:21;;;;;;;5.60;3.53;;;;;;;9.36;100.00;99829.22;5034369;28;20584;-49
2022/11/04 02:40:49;;;;;;;8.07;3.95;;;;;;;9.36;100.00;99828.31;5014023;28;20271;-50
2022/11/04 02:43:21;;;;;;;6.25;4.32;;;;;;;9.36;100.00;99831.00;5035639;28;20668;-48
2022/11/04 02:45:51;;;;;;;7.75;4.35;;;;;;;9.36;100.00;99826.53;5030983;28;20207;-49
2022/11/04 02:48:31;;;;;;;8.20;4.00;;;;;;;9.37;100.00;99822.91;5032695;28;20669;-50
2022/11/04 02:51:09;;;;;;;11.40;4.47;;;;;;;9.39;100.00;99820.19;5031388;28;20591;-48
2022/11/04 02:53:55;;;;;;;9.30;4.43;;;;;;;9.40;100.00;99822.78;5034203;28;20483;-49
2022/11/04 02:56:22;;;;;;;8.45;4.95;;;;;;;9.38;100.00;99822.00;5029003;28;20215;-48
2022/11/04 02:59:08;;;;;;;6.80;4.47;;;;;;;9.36;100.00;99820.31;5033058;28;20270;-49
2022/11/04 03:01:39;;;;;;;10.70;5.13;;;;;;;9.38;100.00;99815.75;5040467;28;20189;-49
2022/11/04 03:04:29;;;;;;;7.78;4.60;;;;;;;9.32;100.00;99814.28;5021288;28;20289;-48
2022/11/04 03:06:58;;;;;;;8.52;5.10;;;;;;;9.31;100.00;99825.88;5034774;28;20203;-49
2022/11/04 03:09:26;;;;;;;10.07;5.22;;;;;;;9.24;100.00;99819.97;5031232;28;20245;-48
2022/11/04 03:11:57;;;;;;;8.73;5.88;;;;;;;9.19;100.00;99813.16;5035578;28;20183;-48
2022/11/04 03:14:41;;;;;;;7.45;5.85;;;;;;;9.12;100.00;99814.34;5034282;28;20636;-48
2022/11/04 03:17:30;;;;;;;12.80;6.75;;;;;;;9.10;100.00;99816.28;5030510;28;20172;-49
2022/11/04 03:19:58;;;;;;;9.43;6.35;;;;;;;9.00;100.00;99811.34;5029630;28;20187;-48
2022/11/04 03:22:29;;;;;;;9.98;5.82;;;;;;;9.05;100.00;99809.34;5018781;28;20180;-48
2022/11/04 03:24:55;;;;;;;8.35;6.57;;;;;;;9.01;100.00;99807.75;5034025;28;20195;-48
2022/11/04 03:27:25;;;;;;;8.85;6.03;;;;;;;8.99;100.00;99822.13;5036908;28;20188;-48
2022/11/04 03:30:05;;;;;;;13.43;6.25;;;;;;;8.99;100.00;99816.78;5028998;28;20215;-49
2022/11/04 03:32:39;;;;;;;7.72;5.82;;;;;;;9.01;100.00;99820.25;5032670;28;20199;-49
2022/11/04 03:35:06;;;;;;;8.15;6.25;;;;;;;9.02;100.00;99822.81;5020009;28;21134;-49
2022/11/04 03:37:32;;;;;;;7.50;6.20;;;;;;;9.03;100.00;99829.91;5042880;28;20274;-49
2022/11/04 03:39:58;;;;;;;7.90;6.10;;;;;;;9.04;100.00;99812.94;5032302;28;20690;-49
2022/11/04 03:42:25;;;;;;;7.50;5.68;;;;;;;9.06;100.00;99824.41;5032428;28;20500;-49
2022/11/04 03:44:53;;;;;;;16.00;6.82;;;;;;;9.08;100.00;99825.22;5032616;28;20215;-50
2022/11/04 03:47:21;;;;;;;9.93;6.00;;;;;;;9.11;100.00;99823.31;5030797;28;20263;-50
2022/11/04 03:49:49;;;;;;;8.50;6.18;;;;;;;9.14;100.00;99815.16;5040563;28;20195;-49
2022/11/04 03:52:16;;;;;;;9.85;5.80;;;;;;;9.15;100.00;99830.25;5028541;28;20190;-51
2022/11/04 03:54:43;;;;;;;12.40;5.90;;;;;;;9.16;100.00;99821.28;5028241;28;20223;-50
2022/11/04 03:57:27;;;;;;;11.65;6.00;;;;;;;9.20;100.00;99821.06;5029461;28;20184;-50
2022/11/04 04:00:09;;;;;;;10.05;5.68;;;;;;;9.18;100.00;99819.41;5028370;28;20253;-49
2022/11/04 04:02:56;;;;;;;9.77;6.35;;;;;;;9.17;100.00;99812.34;5029351;28;20271;-50
2022/11/04 04:05:27;;;;;;;11.32;6.15;;;;;;;9.15;100.00;99814.22;5031894;28;20208;-49
2022/11/04 04:08:11;;;;;;;10.68;6.03;;;;;;;9.15;100.00;99820.44;5032970;28;20266;-48
2022/11/04 04:11:06;;;;;;;8.70;6.07;;;;;;;9.14;100.00;99812.47;5029237;28;20195;-50
2022/11/04 04:13:32;;;;;;;10.80;6.40;;;;;;;9.12;100.00;99823.25;5005026;28;20717;-50
2022/11/04 04:16:01;;;;;;;8.00;5.95;;;;;;;9.11;100.00;99829.53;5034016;28;20204;-50
2022/11/04 04:18:50;;;;;;;8.38;6.20;;;;;;;9.12;100.00;99825.94;5031292;28;20195;-51
2022/11/04 04:21:20;;;;;;;11.02;7.03;;;;;;;9.11;100.00;99810.81;5035850;28;20538;-49
2022/11/04 04:29:21;;;;;;;11.07;6.70;;;;;;;9.09;100.00;99823.41;5034050;28;20691;-48
2022/11/04 04:31:48;;;;;;;11.80;7.68;;;;;;;9.09;100.00;99812.72;5036027;28;20314;-49
2022/11/04 04:34:15;;;;;;;10.93;7.65;;;;;;;9.09;100.00;99804.69;5038416;28;20718;-50
2022/11/04 04:37:24;;;;;;;10.98;7.65;;;;;;;9.08;100.00;99795.81;5040921;28;20218;-49
2022/11/04 04:45:30;;;;;;;13.95;8.70;;;;;;;9.12;100.00;99799.22;5030597;28;20264;-50
2022/11/04 04:47:56;;;;;;;14.30;8.40;;;;;;;9.13;100.00;99776.03;5035673;28;20196;-50
2022/11/04 04:50:24;;;;;;;10.32;8.43;;;;;;;9.14;100.00;99796.44;5033843;28;20180;-49
2022/11/04 04:52:52;;;;;;;13.93;8.35;;;;;;;9.11;100.00;99777.91;5034238;28;20196;-51
2022/11/04 04:55:19;;;;;;;13.02;8.32;;;;;;;9.13;100.00;99789.38;5034662;28;20316;-49
2022/11/04 04:57:45;;;;;;;13.02;8.68;;;;;;;9.13;100.00;99787.56;5038323;28;20318;-49
2022/11/04 05:00:14;;;;;;;11.82;8.77;;;;;;;9.15;100.00;99793.72;5038537;28;20337;-49
2022/11/04 05:02:39;;;;;;;12.40;8.98;;;;;;;9.18;100.00;99798.91;5034163;28;20176;-49
2022/11/04 05:05:06;;;;;;;14.48;9.50;;;;;;;9.25;100.00;99816.38;5043541;28;20242;-49
2022/11/04 05:07:31;;;;;;;12.13;9.30;;;;;;;9.25;100.00;99816.38;5037030;28;20207;-50
2022/11/04 05:09:57;;;;;;;10.60;7.97;;;;;;;9.30;100.00;99825.97;5033069;28;20188;-52
2022/11/04 05:12:22;;;;;;;10.77;8.88;;;;;;;9.32;100.00;99829.44;5032490;28;20257;-50
2022/11/04 05:14:48;;;;;;;11.73;9.25;;;;;;;9.36;100.00;99818.53;5032864;28;20696;-51
2022/11/04 05:17:14;;;;;;;12.15;8.85;;;;;;;9.39;100.00;99829.06;5032321;28;20242;-51
2022/11/04 05:19:40;;;;;;;11.32;9.25;;;;;;;9.41;100.00;99835.19;5031589;28;20282;-51
2022/11/04 05:22:05;;;;;;;14.02;9.23;;;;;;;9.45;100.00;99834.09;5033726;28;20354;-50
2022/11/04 05:24:31;;;;;;;15.70;9.07;;;;;;;9.47;100.00;99845.59;5036006;28;20207;-50
2022/11/04 05:26:56;;;;;;;13.65;9.63;;;;;;;9.49;100.00;99858.91;5039696;28;20194;-50
2022/11/04 05:29:22;;;;;;;10.95;9.38;;;;;;;9.51;100.00;99851.66;5032524;28;20195;-47
2022/11/04 05:31:47;;;;;;;13.68;10.00;;;;;;;9.55;100.00;99852.34;5031949;28;20213;-48
2022/11/04 05:34:13;;;;;;;10.60;9.40;;;;;;;9.59;100.00;99857.47;5037306;28;20200;-48
2022/11/04 05:36:39;;;;;;;11.95;9.38;;;;;;;9.59;100.00;99859.28;5033853;28;20230;-49
2022/11/04 05:39:05;;;;;;;12.20;9.18;;;;;;;9.62;100.00;99859.13;5034556;28;20712;-51
2022/11/04 05:41:31;;;;;;;13.45;9.63;;;;;;;9.71;100.00;99872.06;5034360;28;20255;-50
2022/11/04 05:44:00;;;;;;;11.75;8.82;;;;;;;9.69;100.00;99874.81;5033209;28;20665;-50
2022/11/04 05:46:27;;;;;;;10.63;8.45;;;;;;;9.71;100.00;99888.13;5034116;28;20539;-47
2022/11/04 05:48:52;;;;;;;10.27;8.35;;;;;;;9.73;100.00;99886.22;5033265;28;20231;-47
2022/11/04 05:51:21;;;;;;;11.82;8.50;;;;;;;9.78;100.00;99888.66;5033667;28;20714;-46
2022/11/04 05:53:46;;;;;;;8.95;8.05;;;;;;;9.81;100.00;99899.19;5030977;28;20208;-46
2022/11/04 05:56:12;;;;;;;9.68;7.72;;;;;;;9.81;100.00;99896.53;5034026;28;20726;-47
2022/11/04 05:58:37;;;;;;;9.35;7.65;;;;;;;9.80;100.00;99906.38;5032903;28;20164;-50
2022/11/04 06:01:22;;;;;;;8.82;7.85;;;;;;;9.80;100.00;99906.38;5034343;28;20188;-47
2022/11/04 06:03:47;;;;;;;8.27;7.38;;;;;;;9.75;100.00;99912.88;5033953;28;20652;-46
2022/11/04 06:06:13;;;;;;;11.50;6.72;;;;;;;9.75;100.00;99915.56;5036811;28;20198;-46
2022/11/04 06:08:38;;;;;;;7.15;6.47;;;;;;;9.71;100.00;99920.22;5035559;28;20207;-50
2022/11/04 06:11:04;;;;;;;6.85;6.13;;;;;;;9.67;100.00;99916.81;5030428;28;20279;-47
2022/11/04 06:13:30;;;;;;;7.07;6.43;;;;;;;9.62;100.00;99917.97;5031081;28;20202;-47
2022/11/04 06:15:56;;;;;;;6.90;6.35;;;;;;;9.59;100.00;99912.78;5032141;28;20196;-48
2022/11/04 06:18:21;;;;;;;7.00;6.15;;;;;;;9.61;100.00;99924.25;5013044;28;20188;-46
2022/11/04 06:20:47;;;;;;;8.13;6.50;;;;;;;9.56;100.00;99926.31;5012209;28;20190;-48
2022/11/04 06:23:12;;;;;;;6.50;5.90;;;;;;;9.57;100.00;99936.91;5011316;28;20202;-49
2022/11/04 06:25:37;;;;;;;6.28;5.45;;;;;;;9.54;100.00;99938.88;5017203;28;20192;-47
2022/11/04 06:28:03;;;;;;;8.70;5.82;;;;;;;9.49;100.00;99953.34;5010365;28;20208;-50
2022/11/04 06:30:28;;;;;;;6.70;5.22;;;;;;;9.50;100.00;99951.53;5013194;28;20246;-50
2022/11/04 06:32:54;;;;;;;7.18;4.70;;;;;;;9.48;100.00;99945.38;5009682;28;20173;-49
2022/11/04 06:35:19;;;;;;;6.57;4.60;;;;;;;9.48;100.00;99940.88;5013367;28;20207;-46
2022/11/04 06:37:45;;;;;;;4.88;4.32;;;;;;;9.47;100.00;99940.97;5013424;28;20169;-51
2022/11/04 06:40:11;;;;;;;3.95;3.65;;;;;;;9.47;100.00;99952.53;5014248;28;20175;-46
2022/11/04 06:42:37;;;;;;;3.88;3.53;;;;;;;9.54;100.00;99944.22;5016770;28;20177;-46
2022/11/04 06:45:02;;;;;;;3.67;2.90;;;;;;;9.55;100.00;99948.63;5016484;28;20615;-49
2022/11/04 06:47:28;;;;;;;3.17;2.88;;;;;;;9.54;100.00;99946.91;5012925;28;20192;-47
2022/11/04 06:49:54;;;;;;;4.10;2.40;;;;;;;9.56;100.00;99959.25;5011047;28;20188;-50
2022/11/04 06:52:19;;;;;;;4.05;2.40;;;;;;;9.61;100.00;99959.88;5014713;28;20184;-47
2022/11/04 06:54:46;;;;;;;2.67;1.85;;;;;;;9.64;100.00;99945.50;5019032;28;20676;-46
2022/11/04 06:57:12;;;;;;;1.38;1.27;;;;;;;9.62;100.00;99952.72;5017752;28;20192;-50
2022/11/04 06:59:38;;;;;;;2.95;1.40;;;;;;;9.67;100.00;99970.31;5014926;28;20268;-50
2022/11/04 07:02:04;;;;;;;1.67;1.00;;;;;;;9.66;100.00;99962.34;5010972;28;20193;-49
2022/11/04 07:04:29;;;;;;;1.45;1.35;;;;;;;9.68;100.00;99941.72;5010899;28;20222;-48
2022/11/04 07:06:54;;;;;;;2.88;1.13;;;;;;;9.68;100.00;99947.09;5014091;28;20184;-49
2022/11/04 07:09:20;;;;;;;1.10;1.00;;;;;;;9.65;100.00;99947.25;5008296;28;20737;-51
2022/11/04 07:11:46;;;;;;;0.70;0.70;;;;;;;9.68;100.00;99963.13;5010987;28;20198;-47
2022/11/04 07:14:11;;;;;;;1.20;0.80;;;;;;;9.66;100.00;99975.72;5013540;28;20611;-47
2022/11/04 07:16:37;;;;;;;1.95;0.82;;;;;;;9.66;100.00;99978.38;5016688;28;20196;-48
2022/11/04 07:19:03;;;;;;;1.63;0.90;;;;;;;9.66;100.00;99981.06;5015243;28;20184;-47
2022/11/04 07:21:29;;;;;;;1.40;0.85;;;;;;;9.67;100.00;99980.13;5013392;28;20192;-49
2022/11/04 07:23:54;;;;;;;1.80;0.88;;;;;;;9.67;100.00;99975.66;5010767;28;20243;-50
2022/11/04 07:26:20;;;;;;;2.90;1.05;;;;;;;9.69;100.00;99970.22;5018042;28;20585;-49
2022/11/04 07:28:46;;;;;;;1.98;0.80;;;;;;;9.73;100.00;99974.50;5012023;28;20211;-50
2022/11/04 07:31:13;;;;;;;2.38;1.40;;;;;;;9.72;100.00;99975.41;5018558;28;20263;-49
2022/11/04 07:33:38;;;;;;;1.67;0.90;;;;;;;9.82;100.00;99983.88;5018953;28;20204;-48
2022/11/04 07:36:06;;;;;;;1.63;1.00;;;;;;;9.78;100.00;99993.00;5006101;28;20541;-49
2022/11/04 07:38:32;;;;;;;2.40;0.90;;;;;;;9.79;100.00;99989.38;5015962;28;20187;-50
2022/11/04 07:40:58;;;;;;;2.08;0.98;;;;;;;9.81;100.00;100001.72;5014549;28;20660;-48
2022/11/04 07:43:23;;;;;;;1.05;0.95;;;;;;;9.87;100.00;100000.56;5013881;28;20178;-47
2022/11/04 07:46:09;;;;;;;2.60;1.08;;;;;;;9.88;100.00;100013.88;5012990;28;20546;-48
2022/11/04 07:48:35;;;;;;;1.90;0.90;;;;;;;9.93;100.00;100004.75;5008406;28;20189;-48
2022/11/04 07:51:02;;;;;;;1.52;1.00;;;;;;;9.95;100.00;100009.09;5010707;28;20188;-48
2022/11/04 07:53:29;;;;;;;3.58;1.10;;;;;;;9.96;100.00;100007.28;5012936;28;20173;-48
2022/11/04 07:55:55;;;;;;;2.88;0.98;;;;;;;10.01;100.00;100011.44;5013007;28;20732;-48
2022/11/04 07:58:21;;;;;;;4.35;1.05;;;;;;;10.08;100.00;100004.88;5019638;28;20656;-49
2022/11/04 08:00:47;;;;;;;2.63;0.98;;;;;;;10.11;100.00;100002.03;5012901;28;20176;-48
2022/11/04 08:03:13;;;;;;;4.95;1.13;;;;;;;10.14;100.00;100016.22;5017838;28;20184;-49
2022/11/04 08:05:39;;;;;;;1.85;0.98;;;;;;;10.19;100.00;100031.09;5019263;28;20200;-49
2022/11/04 08:08:05;;;;;;;2.05;0.80;;;;;;;10.16;100.00;100027.72;5011050;28;20207;-49
2022/11/04 08:10:30;;;;;;;1.63;0.90;;;;;;;10.13;100.00;100036.75;5022213;28;20195;-49
2022/11/04 08:12:56;;;;;;;3.38;1.00;;;;;;;10.06;100.00;100030.84;5021025;28;20173;-48
2022/11/04 08:15:21;;;;;;;1.77;0.90;;;;;;;10.08;100.00;100044.16;5017189;28;20204;-49
2022/11/04 08:17:47;;;;;;;1.88;1.00;;;;;;;10.02;100.00;100050.66;5016449;28;20511;-49
2022/11/04 08:20:13;;;;;;;1.77;1.00;;;;;;;10.00;100.00;100047.19;5016821;28;20259;-49
2022/11/04 08:22:38;;;;;;;1.88;0.95;;;;;;;9.99;100.00;100061.53;5022947;28;20176;-48
2022/11/04 08:25:04;;;;;;;4.20;0.82;;;;;;;9.99;100.00;100052.59;5012232;28;20204;-50
2022/11/04 08:27:30;;;;;;;3.03;1.10;;;;;;;10.01;100.00;100037.34;5011776;28;20184;-48
2022/11/04 08:29:56;;;;;;;4.15;1.20;;;;;;;9.99;100.00;100034.78;5012406;28;20173;-50
2022/11/04 08:32:22;;;;;;;2.50;1.10;;;;;;;10.00;100.00;100040.97;5017193;28;20181;-48
2022/11/04 08:34:47;;;;;;;2.10;1.02;;;;;;;10.04;100.00;100029.19;5014860;28;20208;-47
2022/11/04 08:37:15;;;;;;;3.65;1.00;;;;;;;10.10;100.00;100047.59;5013371;28;20267;-46
2022/11/04 08:39:41;;;;;;;1.33;1.02;;;;;;;10.15;100.00;100042.91;5021252;28;20177;-48
2022/11/04 08:42:06;;;;;;;1.63;0.90;;;;;;;10.11;100.00;100054.69;5012907;28;20183;-47
2022/11/04 08:44:32;;;;;;;2.55;0.93;;;;;;;10.20;100.00;100056.06;5015327;28;20200;-49
2022/11/04 08:46:58;;;;;;;2.60;1.17;;;;;;;10.21;100.00;100066.72;5012557;28;20200;-47
2022/11/04 08:49:24;;;;;;;2.90;1.17;;;;;;;10.19;100.00;100065.91;5015169;28;20247;-50
2022/11/04 08:51:55;;;;;;;2.00;1.10;;;;;;;10.29;100.00;100063.66;5013180;28;20589;-51
2022/11/04 08:54:22;;;;;;;4.35;1.20;;;;;;;10.35;100.00;100049.97;5013901;28;20216;-44
2022/11/04 08:56:47;;;;;;;2.55;1.10;;;;;;;10.33;100.00;100059.91;5017319;28;20177;-44
2022/11/04 08:59:13;;;;;;;3.25;1.10;;;;;;;10.26;100.00;100061.13;5013750;28;20196;-45
2022/11/04 09:01:39;;;;;;;4.60;1.00;;;;;;;10.19;100.00;100073.06;5016180;28;20336;-46
2022/11/04 09:04:05;;;;;;;2.15;1.00;;;;;;;10.22;100.00;100075.59;5015352;28;20687;-47
2022/11/04 09:06:37;;;;;;;2.05;0.93;;;;;;;10.19;100.00;100070.38;5015740;28;20677;-45
2022/11/04 09:09:05;;;;;;;2.55;1.30;;;;;;;10.16;100.00;100074.06;5014571;28;20695;-45
2022/11/04 09:11:32;;;;;;;2.28;0.98;;;;;;;10.18;100.00;100072.19;5017977;28;20237;-45
2022/11/04 09:13:59;;;;;;;4.13;1.20;;;;;;;10.17;100.00;100080.31;5020772;28;20300;-46
2022/11/04 09:16:26;;;;;;;1.88;1.13;;;;;;;10.18;100.00;100084.72;5018051;28;20657;-43
2022/11/04 09:18:51;;;;;;;3.50;1.40;;;;;;;10.17;100.00;100072.28;5017554;28;20183;-44
2022/11/04 09:21:17;;;;;;;3.13;1.42;;;;;;;10.15;100.00;100083.06;5014675;28;20615;-45
2022/11/04 09:23:42;;;;;;;5.72;1.33;;;;;;;10.17;100.00;100093.69;5014145;28;20203;-48
2022/11/04 09:26:12;;;;;;;2.03;1.20;;;;;;;10.20;100.00;100090.88;5021466;28;20196;-50
2022/11/04 09:28:39;;;;;;;4.25;1.60;;;;;;;10.21;100.00;100093.47;5018541;28;20236;-49
2022/11/04 09:31:11;;;;;;;3.38;1.17;;;;;;;10.19;100.00;100102.50;5018299;28;20168;-47
2022/11/04 09:33:36;;;;;;;4.30;1.35;;;;;;;10.21;100.00;100097.94;5018567;28;20242;-50
2022/11/04 09:36:02;;;;;;;3.25;1.52;;;;;;;10.24;100.00;100120.09;5015182;28;20610;-48
2022/11/04 09:38:28;;;;;;;2.92;1.38;;;;;;;10.25;100.00;100112.91;5016771;28;20176;-51
2022/11/04 09:40:54;;;;;;;1.95;1.17;;;;;;;10.26;100.00;100107.50;5015540;28;20630;-50
2022/11/04 09:43:49;;;;;;;6.22;1.70;;;;;;;10.19;100.00;100122.13;4995956;28;20279;-51
2022/11/04 09:46:14;;;;;;;1.52;1.13;;;;;;;10.37;100.00;100127.56;5016860;28;20193;-48
2022/11/04 09:48:47;;;;;;;3.15;1.50;;;;;;;10.46;100.00;100138.69;5028800;28;20215;-48
2022/11/04 09:51:17;;;;;;;2.08;1.20;;;;;;;10.49;100.00;100140.34;5015644;28;20277;-49
2022/11/04 09:53:45;;;;;;;1.40;1.10;;;;;;;10.54;100.00;100149.03;5025853;28;20200;-48
2022/11/04 09:56:31;;;;;;;3.72;1.45;;;;;;;10.42;100.00;100146.94;5012648;28;20732;-48
2022/11/04 09:58:57;;;;;;;2.67;1.25;;;;;;;10.40;100.00;100160.41;5018343;28;20207;-47
2022/11/04 10:01:31;;;;;;;1.63;1.00;;;;;;;10.43;100.00;100170.09;5014928;28;20183;-47
2022/11/04 10:04:18;;;;;;;3.15;1.35;;;;;;;10.38;100.00;100167.63;5010464;28;20226;-48
2022/11/04 10:06:59;;;;;;;5.82;1.20;;;;;;;10.37;100.00;100173.09;5010985;28;20179;-46
2022/11/04 10:09:42;;;;;;;3.38;1.20;;;;;;;10.46;100.00;100169.97;5011187;28;20219;-49
2022/11/04 10:12:26;;;;;;;2.65;1.13;;;;;;;10.50;100.00;100172.41;5015647;28;20173;-49
2022/11/04 10:15:11;;;;;;;3.05;1.38;;;;;;;10.54;100.00;100174.94;5015859;28;20328;-47
2022/11/04 10:17:58;;;;;;;2.03;1.00;;;;;;;10.58;100.00;100165.81;5010798;28;20176;-48
2022/11/04 10:20:36;;;;;;;5.80;1.42;;;;;;;10.54;100.00;100170.47;5019618;28;20874;-47
2022/11/04 10:23:17;;;;;;;2.25;1.00;;;;;;;10.66;100.00;100172.53;5010523;28;20176;-47
2022/11/04 10:26:01;;;;;;;2.25;0.90;;;;;;;10.64;100.00;100186.94;5016375;28;20617;-47
2022/11/04 10:28:41;;;;;;;2.17;0.90;;;;;;;10.72;100.00;100184.75;5011319;28;20716;-50
2022/11/04 10:31:13;;;;;;;1.40;0.80;;;;;;;10.71;100.00;100191.06;5008459;28;20286;-49
2022/11/04 10:33:48;;;;;;;5.28;1.15;;;;;;;10.67;100.00;100190.34;5013207;28;20681;-48
2022/11/04 10:36:15;;;;;;;1.60;0.90;;;;;;;10.88;100.00;100192.91;5011364;28;20176;-50
2022/11/04 10:38:54;;;;;;;6.50;1.17;;;;;;;11.01;100.00;100188.66;5010717;28;20255;-49
2022/11/04 10:41:29;;;;;;;4.57;0.93;;;;;;;11.10;100.00;100190.00;5022361;28;20263;-47
2022/11/04 10:44:04;;;;;;;5.78;0.90;;;;;;;11.16;100.00;100188.84;5006703;28;20733;-49
2022/11/04 10:47:11;;;;;;;3.28;1.00;;;;;;;11.15;100.00;100190.66;5009640;28;20188;-49
2022/11/04 10:49:58;;;;;;;3.95;1.05;;;;;;;11.13;100.00;100190.75;5002064;28;20224;-48
2022/11/04 10:52:24;;;;;;;2.67;0.90;;;;;;;11.32;100.00;100195.16;5015796;28;20195;-49
2022/11/04 10:54:49;;;;;;;3.70;1.00;;;;;;;11.32;100.00;100196.00;5015100;28;20196;-48
2022/11/04 10:57:21;;;;;;;2.40;1.10;;;;;;;10.97;100.00;100196.94;5012771;28;20203;-49
2022/11/04 10:59:54;;;;;;;3.63;1.20;;;;;;;10.93;100.00;100189.06;5013123;28;20287;-47
2022/11/04 11:02:44;;;;;;;3.42;1.00;;;;;;;11.14;100.00;100181.72;4996879;28;20177;-48
2022/11/04 11:05:13;;;;;;;2.65;1.10;;;;;;;11.18;100.00;100178.91;5006301;28;20227;-46
2022/11/04 11:07:39;;;;;;;3.35;0.90;;;;;;;11.24;100.00;100178.56;5009650;28;20196;-48
2022/11/04 11:10:15;;;;;;;3.42;0.90;;;;;;;11.25;100.00;100188.38;5016835;28;20191;-48
2022/11/04 11:12:49;;;;;;;2.70;1.15;;;;;;;11.37;100.00;100176.13;5013133;28;20270;-48
2022/11/04 11:15:26;;;;;;;2.63;0.95;;;;;;;11.14;100.00;100179.06;5005666;28;20212;-49
2022/11/04 11:18:15;;;;;;;2.72;1.13;;;;;;;11.26;100.00;100182.03;5016088;28;20172;-44
2022/11/04 11:20:47;;;;;;;3.97;1.10;;;;;;;11.00;100.00;100192.31;5014764;28;20192;-45
2022/11/04 11:23:37;;;;;;;3.42;0.90;;;;;;;11.25;100.00;100186.53;5010507;28;20664;-45
2022/11/04 11:26:08;;;;;;;5.28;1.33;;;;;;;11.29;100.00;100198.00;5013746;28;20261;-45
2022/11/04 11:28:37;;;;;;;9.50;1.63;;;;;;;11.37;100.00;100194.91;5016217;28;20216;-48
2022/11/04 11:31:10;;;;;;;4.43;1.50;;;;;;;11.22;100.00;100208.16;5014633;28;20534;-52
2022/11/04 11:33:40;;;;;;;3.85;1.58;;;;;;;11.04;100.00;100209.97;5016881;28;20243;-48
2022/11/04 11:36:15;;;;;;;3.38;1.15;;;;;;;11.11;100.00;100214.06;5016911;28;20185;-49
2022/11/04 11:38:57;;;;;;;4.20;1.10;;;;;;;11.10;100.00;100224.88;5010583;28;20184;-50
2022/11/04 11:41:30;;;;;;;4.03;1.17;;;;;;;11.14;100.00;100218.41;5010498;28;20192;-47
2022/11/04 11:43:59;;;;;;;6.88;1.45;;;;;;;11.26;100.00;100223.16;5014311;28;20267;-48
2022/11/04 11:46:30;;;;;;;3.97;1.10;;;;;;;11.10;100.00;100240.94;5013940;28;20197;-47
2022/11/04 11:49:01;;;;;;;4.47;1.25;;;;;;;11.12;100.00;100237.25;5012852;28;20347;-47
2022/11/04 11:51:34;;;;;;;8.65;1.40;;;;;;;11.20;100.00;100233.34;5015280;28;20185;-48
2022/11/04 11:54:23;;;;;;;4.97;1.00;;;;;;;11.23;100.00;100233.16;5014654;28;20200;-48
2022/11/04 11:56:52;;;;;;;5.97;1.70;;;;;;;11.17;100.00;100239.69;5009901;28;20224;-46
2022/11/04 11:59:45;;;;;;;8.25;1.30;;;;;;;11.20;100.00;100252.09;5014429;28;20284;-47
2022/11/04 12:02:27;;;;;;;4.50;1.08;;;;;;;11.16;100.00;100251.38;5013754;28;20688;-49
2022/11/04 12:04:55;;;;;;;5.45;1.00;;;;;;;11.06;100.00;100263.50;5009928;28;20224;-49
2022/11/04 12:07:39;;;;;;;4.03;1.42;;;;;;;11.28;100.00;100260.59;5011470;28;20711;-48
2022/11/04 12:10:28;;;;;;;5.65;1.40;;;;;;;11.46;100.00;100262.38;5019592;28;20224;-49
2022/11/04 12:13:23;;;;;;;7.22;1.40;;;;;;;11.48;100.00;100265.00;5019326;28;20204;-46
2022/11/04 12:16:05;;;;;;;6.15;1.60;;;;;;;11.39;100.00;100268.13;5011717;28;20684;-51